Time,TemperatureF,DewpointF,PressureIn,WindDirection,WindDirectionDegrees,WindSpeedMPH,WindSpeedGustMPH,Humidity,HourlyPrecipIn,Conditions,Clouds,dailyrainin,SoftwareType,DateUTC
2017-11-20 00:04:00,26.5,22.0,29.78,SW,231,0.0,0.0,87,0.00,,,0.00,TxWx,2017-11-20 06:04:00,
2017-11-20 00:09:00,26.6,23.0,29.78,WSW,253,0.0,0.0,87,0.00,,,0.00,TxWx,2017-11-20 06:09:00,
2017-11-20 00:24:00,26.5,22.0,29.77,WSW,253,0.0,0.0,87,0.00,,,0.00,TxWx,2017-11-20 06:24:00,
2017-11-20 00:34:00,26.3,22.0,29.78,WSW,253,0.0,0.0,87,0.00,,,0.00,TxWx,2017-11-20 06:34:00,
2017-11-20 00:39:00,26.3,22.0,29.77,SSW,208,0.0,0.0,87,0.00,,,0.00,TxWx,2017-11-20 06:39:00,
2017-11-20 00:49:00,26.1,22.0,29.77,SW,231,0.0,0.0,87,0.00,,,0.00,TxWx,2017-11-20 06:49:00,
2017-11-20 00:54:00,26.1,22.0,29.77,WSW,253,0.0,0.0,87,0.00,,,0.00,TxWx,2017-11-20 06:54:00,
2017-11-20 00:59:00,26.0,22.0,29.77,SW,231,0.0,0.0,87,0.00,,,0.00,TxWx,2017-11-20 06:59:00,
2017-11-20 01:10:00,25.9,22.0,29.77,SSW,208,0.0,0.0,87,0.00,,,0.00,TxWx,2017-11-20 07:10:00,
2017-11-20 01:21:00,25.8,22.0,29.76,WSW,253,0.0,0.0,87,0.00,,,0.00,TxWx,2017-11-20 07:21:00,
2017-11-20 01:26:00,25.8,22.0,29.76,West,276,0.0,0.0,87,0.00,,,0.00,TxWx,2017-11-20 07:26:00,
2017-11-20 01:31:00,25.8,22.0,29.76,SW,231,0.0,0.0,87,0.00,,,0.00,TxWx,2017-11-20 07:31:00,
2017-11-20 01:36:00,25.8,22.0,29.76,South,186,0.0,0.0,87,0.00,,,0.00,TxWx,2017-11-20 07:36:00,
2017-11-20 01:41:00,25.8,22.0,29.76,SW,231,0.0,0.0,87,0.00,,,0.00,TxWx,2017-11-20 07:41:00,
2017-11-20 01:56:00,25.7,22.0,29.77,WSW,253,0.0,0.0,88,0.00,,,0.00,TxWx,2017-11-20 07:56:00,
2017-11-20 02:11:00,25.6,22.0,29.76,SW,231,0.0,0.0,88,0.00,,,0.00,TxWx,2017-11-20 08:11:00,
2017-11-20 02:16:00,25.6,22.0,29.76,SW,231,0.0,0.0,88,0.00,,,0.00,TxWx,2017-11-20 08:16:00,
2017-11-20 02:21:00,25.5,22.0,29.76,SW,231,0.0,0.0,88,0.00,,,0.00,TxWx,2017-11-20 08:21:00,
2017-11-20 02:26:00,25.5,22.0,29.76,SW,231,0.0,0.0,88,0.00,,,0.00,TxWx,2017-11-20 08:26:00,
2017-11-20 02:31:00,25.4,21.0,29.75,SW,231,0.0,0.0,88,0.00,,,0.00,TxWx,2017-11-20 08:31:00,
2017-11-20 02:36:00,25.4,21.0,29.75,SW,231,0.0,0.0,88,0.00,,,0.00,TxWx,2017-11-20 08:36:00,
2017-11-20 02:41:00,25.4,21.0,29.75,WSW,253,0.0,0.0,88,0.00,,,0.00,TxWx,2017-11-20 08:41:00,
2017-11-20 02:51:00,25.4,21.0,29.75,SW,231,0.0,0.0,89,0.00,,,0.00,TxWx,2017-11-20 08:51:00,
2017-11-20 02:56:00,25.4,21.0,29.75,SW,231,0.0,0.0,89,0.00,,,0.00,TxWx,2017-11-20 08:56:00,
2017-11-20 03:06:00,25.4,21.0,29.74,SW,231,0.0,0.0,89,0.00,,,0.00,TxWx,2017-11-20 09:06:00,
2017-11-20 03:12:00,25.4,21.0,29.73,South,186,0.0,0.0,89,0.00,,,0.00,TxWx,2017-11-20 09:12:00,
2017-11-20 03:17:00,25.4,21.0,29.73,SSW,208,0.0,0.0,89,0.00,,,0.00,TxWx,2017-11-20 09:17:00,
2017-11-20 03:22:00,25.4,21.0,29.73,SSW,208,0.0,0.0,89,0.00,,,0.00,TxWx,2017-11-20 09:22:00,
2017-11-20 03:27:00,25.4,21.0,29.73,SSW,208,0.0,0.0,89,0.00,,,0.00,TxWx,2017-11-20 09:27:00,
2017-11-20 03:37:00,25.6,22.0,29.73,SSW,208,0.0,0.0,89,0.00,,,0.00,TxWx,2017-11-20 09:37:00,
2017-11-20 03:57:00,26.4,22.0,29.72,WNW,298,0.0,0.0,90,0.00,,,0.00,TxWx,2017-11-20 09:57:00,
2017-11-20 04:02:00,26.6,23.0,29.72,WSW,253,0.0,0.0,90,0.00,,,0.00,TxWx,2017-11-20 10:02:00,
2017-11-20 04:12:00,26.9,23.0,29.72,South,186,0.0,0.0,90,0.00,,,0.00,TxWx,2017-11-20 10:12:00,
2017-11-20 04:17:00,26.9,23.0,29.71,SW,231,0.0,0.0,90,0.00,,,0.00,TxWx,2017-11-20 10:17:00,
2017-11-20 04:22:00,27.0,23.0,29.71,WSW,253,0.0,0.0,90,0.00,,,0.00,TxWx,2017-11-20 10:22:00,
2017-11-20 04:27:00,27.0,23.0,29.71,SW,231,0.0,0.0,90,0.00,,,0.00,TxWx,2017-11-20 10:27:00,
2017-11-20 04:37:00,27.0,23.0,29.71,WSW,253,0.0,0.0,90,0.00,,,0.00,TxWx,2017-11-20 10:37:00,
2017-11-20 04:42:00,27.0,23.0,29.71,SW,231,0.0,0.0,90,0.00,,,0.00,TxWx,2017-11-20 10:42:00,
2017-11-20 04:52:00,27.1,23.0,29.71,SSE,163,0.0,0.0,90,0.00,,,0.00,TxWx,2017-11-20 10:52:00,
2017-11-20 04:57:00,27.1,23.0,29.70,SW,231,0.0,0.0,90,0.00,,,0.00,TxWx,2017-11-20 10:57:00,
2017-11-20 05:02:00,27.1,23.0,29.70,East,96,0.0,0.0,90,0.00,,,0.00,TxWx,2017-11-20 11:02:00,
2017-11-20 05:12:00,27.1,24.0,29.71,WSW,253,0.0,0.0,91,0.00,,,0.00,TxWx,2017-11-20 11:12:00,
2017-11-20 05:17:00,27.1,24.0,29.71,WSW,253,0.0,0.0,91,0.00,,,0.00,TxWx,2017-11-20 11:17:00,
2017-11-20 05:22:00,27.0,24.0,29.71,SSW,208,0.0,0.0,91,0.00,,,0.00,TxWx,2017-11-20 11:22:00,
2017-11-20 05:28:00,27.0,24.0,29.70,SW,231,0.0,0.0,91,0.00,,,0.00,TxWx,2017-11-20 11:28:00,
2017-11-20 05:33:00,26.9,24.0,29.70,SW,231,0.0,0.0,91,0.00,,,0.00,TxWx,2017-11-20 11:33:00,
2017-11-20 05:48:00,26.7,24.0,29.70,West,276,0.0,0.0,91,0.00,,,0.00,TxWx,2017-11-20 11:48:00,
2017-11-20 05:53:00,26.6,24.0,29.70,SW,231,0.0,0.0,91,0.00,,,0.00,TxWx,2017-11-20 11:53:00,
2017-11-20 05:59:00,26.5,24.0,29.69,South,186,0.0,0.0,91,0.00,,,0.00,TxWx,2017-11-20 11:59:00,
2017-11-20 06:09:00,26.4,23.0,29.69,SW,231,0.0,0.0,91,0.00,,,0.00,TxWx,2017-11-20 12:09:00,
2017-11-20 06:14:00,26.3,23.0,29.69,SSW,208,0.0,0.0,91,0.00,,,0.00,TxWx,2017-11-20 12:14:00,
2017-11-20 06:19:00,26.3,23.0,29.68,WSW,253,0.0,0.0,91,0.00,,,0.00,TxWx,2017-11-20 12:19:00,
2017-11-20 06:24:00,26.2,23.0,29.68,SSW,208,0.0,0.0,91,0.00,,,0.00,TxWx,2017-11-20 12:24:00,
2017-11-20 06:39:00,26.1,23.0,29.68,SW,231,0.0,0.0,91,0.00,,,0.00,TxWx,2017-11-20 12:39:00,
2017-11-20 06:44:00,26.1,23.0,29.68,West,276,0.0,0.0,91,0.00,,,0.00,TxWx,2017-11-20 12:44:00,
2017-11-20 06:54:00,26.2,23.0,29.67,ENE,73,0.0,0.0,91,0.00,,,0.00,TxWx,2017-11-20 12:54:00,
2017-11-20 06:59:00,26.3,23.0,29.67,SSW,208,0.0,0.0,91,0.00,,,0.00,TxWx,2017-11-20 12:59:00,
2017-11-20 07:04:00,26.3,23.0,29.67,SE,141,0.0,0.0,91,0.00,,,0.00,TxWx,2017-11-20 13:04:00,
2017-11-20 07:14:00,26.4,23.0,29.66,SE,141,0.0,0.0,91,0.00,,,0.00,TxWx,2017-11-20 13:14:00,
2017-11-20 07:19:00,26.5,24.0,29.66,South,186,0.0,0.0,92,0.00,,,0.00,TxWx,2017-11-20 13:19:00,
2017-11-20 07:24:00,26.6,24.0,29.65,South,186,0.0,0.0,92,0.00,,,0.00,TxWx,2017-11-20 13:24:00,
2017-11-20 07:29:00,26.7,24.0,29.65,SSW,208,0.0,0.0,92,0.00,,,0.00,TxWx,2017-11-20 13:29:00,
2017-11-20 07:34:00,26.8,24.0,29.65,SSW,208,0.0,0.0,92,0.00,,,0.00,TxWx,2017-11-20 13:34:00,
2017-11-20 07:39:00,26.9,24.0,29.65,SSW,208,0.0,0.0,92,0.00,,,0.00,TxWx,2017-11-20 13:39:00,
2017-11-20 07:49:00,27.0,24.0,29.64,South,186,0.0,0.0,92,0.00,,,0.00,TxWx,2017-11-20 13:49:00,
2017-11-20 07:54:00,27.1,24.0,29.64,SSE,163,0.0,0.0,92,0.00,,,0.00,TxWx,2017-11-20 13:54:00,
2017-11-20 07:57:00,27.1,24.0,29.64,SW,231,0.0,0.0,92,0.00,,,0.00,TxWx,2017-11-20 13:57:00,
2017-11-20 08:02:00,27.2,24.0,29.64,SW,231,0.0,0.0,92,0.00,,,0.00,TxWx,2017-11-20 14:02:00,
2017-11-20 08:07:00,27.3,24.0,29.64,South,186,0.0,0.0,92,0.00,,,0.00,TxWx,2017-11-20 14:07:00,
2017-11-20 08:12:00,27.4,24.0,29.64,SSW,208,0.0,0.0,92,0.00,,,0.00,TxWx,2017-11-20 14:12:00,
2017-11-20 08:14:00,27.4,24.0,29.64,SSE,163,0.0,0.0,92,0.00,,,0.00,TxWx,2017-11-20 14:14:00,
2017-11-20 08:19:00,27.6,25.0,29.64,South,186,0.0,0.0,92,0.00,,,0.00,TxWx,2017-11-20 14:19:00,
2017-11-20 08:24:00,27.8,25.0,29.63,SE,141,0.0,0.0,92,0.00,,,0.00,TxWx,2017-11-20 14:24:00,
2017-11-20 08:29:00,28.1,25.0,29.63,SE,141,0.0,0.6,93,0.00,,,0.00,TxWx,2017-11-20 14:29:00,
2017-11-20 08:34:00,28.4,25.0,29.63,SSE,163,1.2,1.9,93,0.00,,,0.00,TxWx,2017-11-20 14:34:00,
2017-11-20 08:44:00,29.0,26.0,29.62,ESE,118,2.5,3.1,93,0.00,,,0.00,TxWx,2017-11-20 14:44:00,
2017-11-20 08:59:00,30.0,27.0,29.61,SE,141,3.7,3.7,93,0.00,,,0.00,TxWx,2017-11-20 14:59:00,
2017-11-20 09:09:00,30.8,28.0,29.61,SSE,163,3.1,4.3,93,0.00,,,0.00,TxWx,2017-11-20 15:09:00,
2017-11-20 09:14:00,31.3,28.0,29.60,SE,141,4.3,4.3,93,0.00,,,0.00,TxWx,2017-11-20 15:14:00,
2017-11-20 09:19:00,31.6,29.0,29.60,SSE,163,3.1,3.7,93,0.00,,,0.00,TxWx,2017-11-20 15:19:00,
2017-11-20 09:29:00,32.3,29.0,29.59,SSE,163,1.9,2.5,93,0.00,,,0.00,TxWx,2017-11-20 15:29:00,
2017-11-20 09:34:00,32.6,30.0,29.59,South,186,3.7,3.7,93,0.00,,,0.00,TxWx,2017-11-20 15:34:00,
2017-11-20 09:44:00,33.3,30.0,29.58,South,186,4.3,4.3,93,0.00,,,0.00,TxWx,2017-11-20 15:44:00,